sensor_id;sensor_type;location;lat;lon;timestamp;P1;durP1;ratioP1;P2;durP2;ratioP2
13611;SDS011;6877;51.436;6.774;2023-05-07T00:02:14;8.57;;;6.25;;
13611;SDS011;6877;51.436;6.774;2023-05-07T00:04:41;14.73;;;7.95;;
13611;SDS011;6877;51.436;6.774;2023-05-07T00:07:12;9.70;;;7.15;;
13611;SDS011;6877;51.436;6.774;2023-05-07T00:09:39;10.48;;;7.55;;
13611;SDS011;6877;51.436;6.774;2023-05-07T00:12:10;11.32;;;7.13;;
13611;SDS011;6877;51.436;6.774;2023-05-07T00:14:42;11.30;;;8.30;;
13611;SDS011;6877;51.436;6.774;2023-05-07T00:17:13;11.60;;;7.70;;
13611;SDS011;6877;51.436;6.774;2023-05-07T00:19:40;15.80;;;8.50;;
13611;SDS011;6877;51.436;6.774;2023-05-07T00:22:06;8.65;;;7.07;;
13611;SDS011;6877;51.436;6.774;2023-05-07T00:24:33;14.05;;;8.20;;
13611;SDS011;6877;51.436;6.774;2023-05-07T00:27:04;12.55;;;7.97;;
13611;SDS011;6877;51.436;6.774;2023-05-07T00:29:31;12.38;;;8.32;;
13611;SDS011;6877;51.436;6.774;2023-05-07T00:31:57;9.68;;;7.47;;
13611;SDS011;6877;51.436;6.774;2023-05-07T00:34:24;15.85;;;8.52;;
13611;SDS011;6877;51.436;6.774;2023-05-07T00:36:50;13.90;;;8.90;;
13611;SDS011;6877;51.436;6.774;2023-05-07T00:39:16;12.63;;;9.40;;
13611;SDS011;6877;51.436;6.774;2023-05-07T00:41:43;11.90;;;8.35;;
13611;SDS011;6877;51.436;6.774;2023-05-07T00:44:14;11.07;;;8.00;;
13611;SDS011;6877;51.436;6.774;2023-05-07T00:46:45;16.63;;;9.55;;
13611;SDS011;6877;51.436;6.774;2023-05-07T00:49:15;12.82;;;8.68;;
13611;SDS011;6877;51.436;6.774;2023-05-07T00:51:47;13.15;;;9.23;;
13611;SDS011;6877;51.436;6.774;2023-05-07T00:54:19;9.02;;;7.28;;
13611;SDS011;6877;51.436;6.774;2023-05-07T00:56:51;12.23;;;8.30;;
13611;SDS011;6877;51.436;6.774;2023-05-07T00:59:20;11.18;;;8.73;;
13611;SDS011;6877;51.436;6.774;2023-05-07T01:01:51;14.40;;;9.20;;
13611;SDS011;6877;51.436;6.774;2023-05-07T01:04:18;13.98;;;10.18;;
13611;SDS011;6877;51.436;6.774;2023-05-07T01:06:45;11.70;;;9.10;;
13611;SDS011;6877;51.436;6.774;2023-05-07T01:09:17;12.85;;;9.57;;
13611;SDS011;6877;51.436;6.774;2023-05-07T01:11:46;16.17;;;9.75;;
13611;SDS011;6877;51.436;6.774;2023-05-07T01:14:19;13.32;;;9.02;;
13611;SDS011;6877;51.436;6.774;2023-05-07T01:16:47;13.40;;;9.07;;
13611;SDS011;6877;51.436;6.774;2023-05-07T01:19:18;16.15;;;10.68;;
13611;SDS011;6877;51.436;6.774;2023-05-07T01:21:46;16.55;;;9.82;;
13611;SDS011;6877;51.436;6.774;2023-05-07T01:24:19;12.63;;;9.35;;
13611;SDS011;6877;51.436;6.774;2023-05-07T01:26:50;15.50;;;10.80;;
13611;SDS011;6877;51.436;6.774;2023-05-07T01:29:22;11.68;;;8.73;;
13611;SDS011;6877;51.436;6.774;2023-05-07T01:31:53;13.73;;;9.43;;
13611;SDS011;6877;51.436;6.774;2023-05-07T01:34:30;16.45;;;11.48;;
13611;SDS011;6877;51.436;6.774;2023-05-07T01:37:03;14.70;;;10.48;;
13611;SDS011;6877;51.436;6.774;2023-05-07T01:39:30;14.82;;;10.52;;
13611;SDS011;6877;51.436;6.774;2023-05-07T01:42:02;16.60;;;10.65;;
13611;SDS011;6877;51.436;6.774;2023-05-07T01:44:33;12.60;;;10.07;;
13611;SDS011;6877;51.436;6.774;2023-05-07T01:47:00;13.88;;;10.23;;
13611;SDS011;6877;51.436;6.774;2023-05-07T01:49:28;12.43;;;9.27;;
13611;SDS011;6877;51.436;6.774;2023-05-07T01:51:54;16.35;;;9.93;;
13611;SDS011;6877;51.436;6.774;2023-05-07T01:54:25;11.43;;;8.35;;
13611;SDS011;6877;51.436;6.774;2023-05-07T01:56:56;12.40;;;8.70;;
13611;SDS011;6877;51.436;6.774;2023-05-07T01:59:28;14.63;;;11.27;;
13611;SDS011;6877;51.436;6.774;2023-05-07T02:01:54;13.50;;;8.60;;
13611;SDS011;6877;51.436;6.774;2023-05-07T02:04:20;15.25;;;10.93;;
13611;SDS011;6877;51.436;6.774;2023-05-07T02:06:47;11.43;;;8.73;;
13611;SDS011;6877;51.436;6.774;2023-05-07T02:09:13;14.05;;;8.77;;
13611;SDS011;6877;51.436;6.774;2023-05-07T02:11:41;16.58;;;10.30;;
13611;SDS011;6877;51.436;6.774;2023-05-07T02:14:12;13.20;;;9.80;;
13611;SDS011;6877;51.436;6.774;2023-05-07T02:16:38;10.52;;;8.30;;
13611;SDS011;6877;51.436;6.774;2023-05-07T02:19:05;14.93;;;8.35;;
13611;SDS011;6877;51.436;6.774;2023-05-07T02:21:31;11.07;;;7.28;;
13611;SDS011;6877;51.436;6.774;2023-05-07T02:24:03;14.40;;;8.35;;
13611;SDS011;6877;51.436;6.774;2023-05-07T02:26:34;10.32;;;7.65;;
13611;SDS011;6877;51.436;6.774;2023-05-07T02:29:06;14.18;;;8.27;;
13611;SDS011;6877;51.436;6.774;2023-05-07T02:31:37;12.80;;;9.15;;
13611;SDS011;6877;51.436;6.774;2023-05-07T02:34:04;13.77;;;8.38;;
13611;SDS011;6877;51.436;6.774;2023-05-07T02:36:30;14.85;;;9.52;;
13611;SDS011;6877;51.436;6.774;2023-05-07T02:38:56;14.68;;;8.85;;
13611;SDS011;6877;51.436;6.774;2023-05-07T02:41:23;14.10;;;8.75;;
13611;SDS011;6877;51.436;6.774;2023-05-07T02:43:49;15.45;;;9.27;;
13611;SDS011;6877;51.436;6.774;2023-05-07T02:46:16;11.30;;;8.15;;
13611;SDS011;6877;51.436;6.774;2023-05-07T02:48:42;12.88;;;9.30;;
13611;SDS011;6877;51.436;6.774;2023-05-07T02:51:09;13.18;;;9.18;;
13611;SDS011;6877;51.436;6.774;2023-05-07T02:53:40;16.45;;;10.43;;
13611;SDS011;6877;51.436;6.774;2023-05-07T02:56:11;18.15;;;10.07;;
13611;SDS011;6877;51.436;6.774;2023-05-07T02:58:43;17.77;;;10.52;;
13611;SDS011;6877;51.436;6.774;2023-05-07T03:01:09;15.15;;;10.65;;
13611;SDS011;6877;51.436;6.774;2023-05-07T03:03:41;15.40;;;10.60;;
13611;SDS011;6877;51.436;6.774;2023-05-07T03:06:07;18.45;;;11.02;;
13611;SDS011;6877;51.436;6.774;2023-05-07T03:08:38;14.05;;;11.25;;
13611;SDS011;6877;51.436;6.774;2023-05-07T03:11:05;18.00;;;11.65;;
13611;SDS011;6877;51.436;6.774;2023-05-07T03:13:31;17.52;;;10.82;;
13611;SDS011;6877;51.436;6.774;2023-05-07T03:15:57;18.00;;;11.82;;
13611;SDS011;6877;51.436;6.774;2023-05-07T03:18:29;19.02;;;12.90;;
13611;SDS011;6877;51.436;6.774;2023-05-07T03:20:55;17.02;;;11.73;;
13611;SDS011;6877;51.436;6.774;2023-05-07T03:23:26;16.40;;;11.48;;
13611;SDS011;6877;51.436;6.774;2023-05-07T03:25:53;20.70;;;14.68;;
13611;SDS011;6877;51.436;6.774;2023-05-07T03:28:19;20.10;;;12.73;;
13611;SDS011;6877;51.436;6.774;2023-05-07T03:30:51;18.75;;;13.32;;
13611;SDS011;6877;51.436;6.774;2023-05-07T03:33:22;20.60;;;12.45;;
13611;SDS011;6877;51.436;6.774;2023-05-07T03:35:54;16.88;;;12.45;;
13611;SDS011;6877;51.436;6.774;2023-05-07T03:38:21;17.27;;;11.23;;
13611;SDS011;6877;51.436;6.774;2023-05-07T03:40:52;18.98;;;12.60;;
13611;SDS011;6877;51.436;6.774;2023-05-07T03:43:18;14.40;;;10.57;;
13611;SDS011;6877;51.436;6.774;2023-05-07T03:45:50;15.63;;;10.70;;
13611;SDS011;6877;51.436;6.774;2023-05-07T03:48:16;18.38;;;12.23;;
13611;SDS011;6877;51.436;6.774;2023-05-07T03:50:47;15.65;;;11.65;;
13611;SDS011;6877;51.436;6.774;2023-05-07T03:53:15;20.30;;;13.07;;
13611;SDS011;6877;51.436;6.774;2023-05-07T03:55:47;21.00;;;12.85;;
13611;SDS011;6877;51.436;6.774;2023-05-07T03:58:18;17.75;;;12.73;;
13611;SDS011;6877;51.436;6.774;2023-05-07T04:00:45;18.20;;;12.90;;
13611;SDS011;6877;51.436;6.774;2023-05-07T04:03:11;18.95;;;12.45;;
13611;SDS011;6877;51.436;6.774;2023-05-07T04:05:42;19.35;;;12.85;;
13611;SDS011;6877;51.436;6.774;2023-05-07T04:08:09;17.88;;;13.50;;
13611;SDS011;6877;51.436;6.774;2023-05-07T04:10:35;19.25;;;13.43;;
13611;SDS011;6877;51.436;6.774;2023-05-07T04:13:06;16.98;;;12.90;;
13611;SDS011;6877;51.436;6.774;2023-05-07T04:15:38;22.05;;;13.73;;
13611;SDS011;6877;51.436;6.774;2023-05-07T04:18:04;19.65;;;13.70;;
13611;SDS011;6877;51.436;6.774;2023-05-07T04:20:36;19.88;;;13.38;;
13611;SDS011;6877;51.436;6.774;2023-05-07T04:23:07;18.27;;;13.02;;
13611;SDS011;6877;51.436;6.774;2023-05-07T04:25:39;27.10;;;15.55;;
13611;SDS011;6877;51.436;6.774;2023-05-07T04:28:11;22.63;;;15.07;;
13611;SDS011;6877;51.436;6.774;2023-05-07T04:30:43;21.67;;;13.80;;
13611;SDS011;6877;51.436;6.774;2023-05-07T04:33:10;21.15;;;15.32;;
13611;SDS011;6877;51.436;6.774;2023-05-07T04:35:41;21.02;;;12.93;;
13611;SDS011;6877;51.436;6.774;2023-05-07T04:38:07;23.45;;;15.80;;
13611;SDS011;6877;51.436;6.774;2023-05-07T04:40:39;26.23;;;15.25;;
13611;SDS011;6877;51.436;6.774;2023-05-07T04:43:06;23.25;;;15.68;;
13611;SDS011;6877;51.436;6.774;2023-05-07T04:45:38;22.92;;;14.45;;
13611;SDS011;6877;51.436;6.774;2023-05-07T04:48:12;23.08;;;15.98;;
13611;SDS011;6877;51.436;6.774;2023-05-07T04:50:40;19.80;;;14.07;;
13611;SDS011;6877;51.436;6.774;2023-05-07T04:53:07;25.08;;;16.15;;
13611;SDS011;6877;51.436;6.774;2023-05-07T04:55:38;21.67;;;15.07;;
13611;SDS011;6877;51.436;6.774;2023-05-07T04:58:09;24.40;;;17.13;;
13611;SDS011;6877;51.436;6.774;2023-05-07T05:00:41;22.42;;;15.30;;
13611;SDS011;6877;51.436;6.774;2023-05-07T05:03:08;22.70;;;15.63;;
13611;SDS011;6877;51.436;6.774;2023-05-07T05:05:40;22.48;;;15.82;;
13611;SDS011;6877;51.436;6.774;2023-05-07T05:08:06;24.67;;;15.65;;
13611;SDS011;6877;51.436;6.774;2023-05-07T05:10:32;21.88;;;15.93;;
13611;SDS011;6877;51.436;6.774;2023-05-07T05:13:04;20.23;;;14.77;;
13611;SDS011;6877;51.436;6.774;2023-05-07T05:15:30;24.92;;;15.45;;
13611;SDS011;6877;51.436;6.774;2023-05-07T05:18:01;23.45;;;16.75;;
13611;SDS011;6877;51.436;6.774;2023-05-07T05:20:28;22.17;;;15.77;;
13611;SDS011;6877;51.436;6.774;2023-05-07T05:22:54;20.77;;;13.95;;
13611;SDS011;6877;51.436;6.774;2023-05-07T05:25:21;23.90;;;16.00;;
13611;SDS011;6877;51.436;6.774;2023-05-07T05:27:47;22.52;;;15.55;;
13611;SDS011;6877;51.436;6.774;2023-05-07T05:30:14;24.02;;;16.38;;
13611;SDS011;6877;51.436;6.774;2023-05-07T05:32:40;23.85;;;14.90;;
13611;SDS011;6877;51.436;6.774;2023-05-07T05:35:06;23.42;;;15.27;;
13611;SDS011;6877;51.436;6.774;2023-05-07T05:37:38;20.48;;;14.63;;
13611;SDS011;6877;51.436;6.774;2023-05-07T05:40:09;27.38;;;15.40;;
13611;SDS011;6877;51.436;6.774;2023-05-07T05:42:36;23.73;;;14.65;;
13611;SDS011;6877;51.436;6.774;2023-05-07T05:45:03;23.45;;;15.57;;
13611;SDS011;6877;51.436;6.774;2023-05-07T05:47:29;21.05;;;15.35;;
13611;SDS011;6877;51.436;6.774;2023-05-07T05:49:56;24.55;;;15.80;;
13611;SDS011;6877;51.436;6.774;2023-05-07T05:52:22;22.95;;;15.43;;
13611;SDS011;6877;51.436;6.774;2023-05-07T05:54:54;21.77;;;14.88;;
13611;SDS011;6877;51.436;6.774;2023-05-07T05:57:21;20.65;;;14.65;;
13611;SDS011;6877;51.436;6.774;2023-05-07T05:59:52;19.30;;;14.02;;
13611;SDS011;6877;51.436;6.774;2023-05-07T06:02:24;19.92;;;14.68;;
13611;SDS011;6877;51.436;6.774;2023-05-07T06:04:55;18.33;;;13.75;;
13611;SDS011;6877;51.436;6.774;2023-05-07T06:07:26;18.63;;;13.50;;
13611;SDS011;6877;51.436;6.774;2023-05-07T06:09:53;18.48;;;13.52;;
13611;SDS011;6877;51.436;6.774;2023-05-07T06:12:24;19.48;;;13.00;;
13611;SDS011;6877;51.436;6.774;2023-05-07T06:14:50;18.85;;;12.18;;
13611;SDS011;6877;51.436;6.774;2023-05-07T06:17:17;18.63;;;11.77;;
13611;SDS011;6877;51.436;6.774;2023-05-07T06:19:49;18.02;;;12.77;;
13611;SDS011;6877;51.436;6.774;2023-05-07T06:22:15;14.10;;;10.48;;
13611;SDS011;6877;51.436;6.774;2023-05-07T06:24:41;18.17;;;10.85;;
13611;SDS011;6877;51.436;6.774;2023-05-07T06:27:08;13.02;;;9.70;;
13611;SDS011;6877;51.436;6.774;2023-05-07T06:29:34;18.23;;;10.18;;
13611;SDS011;6877;51.436;6.774;2023-05-07T06:32:12;16.75;;;9.73;;
13611;SDS011;6877;51.436;6.774;2023-05-07T06:34:44;14.23;;;8.90;;
13611;SDS011;6877;51.436;6.774;2023-05-07T06:37:10;15.27;;;10.40;;
13611;SDS011;6877;51.436;6.774;2023-05-07T06:39:42;12.60;;;9.18;;
13611;SDS011;6877;51.436;6.774;2023-05-07T06:42:13;10.23;;;7.75;;
13611;SDS011;6877;51.436;6.774;2023-05-07T06:44:39;12.63;;;8.77;;
13611;SDS011;6877;51.436;6.774;2023-05-07T06:47:06;9.52;;;7.07;;
13611;SDS011;6877;51.436;6.774;2023-05-07T06:49:33;10.88;;;7.60;;
13611;SDS011;6877;51.436;6.774;2023-05-07T06:51:59;13.85;;;8.27;;
13611;SDS011;6877;51.436;6.774;2023-05-07T06:54:31;12.10;;;8.75;;
13611;SDS011;6877;51.436;6.774;2023-05-07T06:56:57;12.02;;;7.90;;
13611;SDS011;6877;51.436;6.774;2023-05-07T06:59:28;12.40;;;8.05;;
13611;SDS011;6877;51.436;6.774;2023-05-07T07:01:55;13.07;;;7.68;;
13611;SDS011;6877;51.436;6.774;2023-05-07T07:04:21;12.10;;;7.53;;
13611;SDS011;6877;51.436;6.774;2023-05-07T07:06:54;14.65;;;6.97;;
13611;SDS011;6877;51.436;6.774;2023-05-07T07:09:27;9.63;;;6.75;;
13611;SDS011;6877;51.436;6.774;2023-05-07T07:11:59;11.70;;;6.97;;
13611;SDS011;6877;51.436;6.774;2023-05-07T07:14:25;12.73;;;5.93;;
13611;SDS011;6877;51.436;6.774;2023-05-07T07:16:57;9.85;;;6.18;;
13611;SDS011;6877;51.436;6.774;2023-05-07T07:19:28;8.25;;;6.20;;
13611;SDS011;6877;51.436;6.774;2023-05-07T07:21:54;5.50;;;4.85;;
13611;SDS011;6877;51.436;6.774;2023-05-07T07:24:26;6.55;;;5.38;;
13611;SDS011;6877;51.436;6.774;2023-05-07T07:26:52;13.57;;;6.05;;
13611;SDS011;6877;51.436;6.774;2023-05-07T07:29:18;9.55;;;5.78;;
13611;SDS011;6877;51.436;6.774;2023-05-07T07:31:45;10.85;;;6.03;;
13611;SDS011;6877;51.436;6.774;2023-05-07T07:34:16;9.65;;;4.60;;
13611;SDS011;6877;51.436;6.774;2023-05-07T07:36:43;5.97;;;4.50;;
13611;SDS011;6877;51.436;6.774;2023-05-07T07:39:14;6.63;;;4.82;;
13611;SDS011;6877;51.436;6.774;2023-05-07T07:41:45;7.82;;;5.82;;
13611;SDS011;6877;51.436;6.774;2023-05-07T07:44:17;6.63;;;4.72;;
13611;SDS011;6877;51.436;6.774;2023-05-07T07:46:43;6.95;;;4.88;;
13611;SDS011;6877;51.436;6.774;2023-05-07T07:49:14;9.48;;;5.07;;
13611;SDS011;6877;51.436;6.774;2023-05-07T07:51:41;6.82;;;5.50;;
13611;SDS011;6877;51.436;6.774;2023-05-07T07:54:07;6.80;;;5.22;;
13611;SDS011;6877;51.436;6.774;2023-05-07T07:56:34;8.45;;;5.75;;
13611;SDS011;6877;51.436;6.774;2023-05-07T07:59:05;8.82;;;4.20;;
13611;SDS011;6877;51.436;6.774;2023-05-07T08:01:37;7.70;;;5.65;;
13611;SDS011;6877;51.436;6.774;2023-05-07T08:04:03;11.05;;;5.05;;
13611;SDS011;6877;51.436;6.774;2023-05-07T08:06:31;5.40;;;4.35;;
13611;SDS011;6877;51.436;6.774;2023-05-07T08:08:58;4.65;;;3.75;;
13611;SDS011;6877;51.436;6.774;2023-05-07T08:11:29;8.25;;;4.55;;
13611;SDS011;6877;51.436;6.774;2023-05-07T08:13:56;5.45;;;3.90;;
13611;SDS011;6877;51.436;6.774;2023-05-07T08:16:22;6.88;;;4.13;;
13611;SDS011;6877;51.436;6.774;2023-05-07T08:18:54;4.65;;;3.40;;
13611;SDS011;6877;51.436;6.774;2023-05-07T08:21:22;6.50;;;3.35;;
13611;SDS011;6877;51.436;6.774;2023-05-07T08:23:48;4.38;;;3.53;;
13611;SDS011;6877;51.436;6.774;2023-05-07T08:26:15;8.32;;;3.00;;
13611;SDS011;6877;51.436;6.774;2023-05-07T08:28:41;4.63;;;3.90;;
13611;SDS011;6877;51.436;6.774;2023-05-07T08:31:07;4.32;;;3.38;;
13611;SDS011;6877;51.436;6.774;2023-05-07T08:33:39;5.13;;;3.88;;
13611;SDS011;6877;51.436;6.774;2023-05-07T08:36:10;6.20;;;3.72;;
13611;SDS011;6877;51.436;6.774;2023-05-07T08:38:37;6.05;;;3.33;;
13611;SDS011;6877;51.436;6.774;2023-05-07T08:41:03;5.18;;;3.45;;
13611;SDS011;6877;51.436;6.774;2023-05-07T08:43:35;3.25;;;2.90;;
13611;SDS011;6877;51.436;6.774;2023-05-07T08:46:09;2.35;;;2.15;;
13611;SDS011;6877;51.436;6.774;2023-05-07T08:48:42;3.78;;;2.83;;
13611;SDS011;6877;51.436;6.774;2023-05-07T08:51:16;2.85;;;2.28;;
13611;SDS011;6877;51.436;6.774;2023-05-07T08:53:51;2.42;;;1.65;;
13611;SDS011;6877;51.436;6.774;2023-05-07T08:56:18;2.55;;;2.05;;
13611;SDS011;6877;51.436;6.774;2023-05-07T08:58:51;3.15;;;1.77;;
13611;SDS011;6877;51.436;6.774;2023-05-07T09:01:17;3.67;;;1.88;;
13611;SDS011;6877;51.436;6.774;2023-05-07T09:03:50;3.30;;;2.08;;
13611;SDS011;6877;51.436;6.774;2023-05-07T09:06:22;5.25;;;2.30;;
13611;SDS011;6877;51.436;6.774;2023-05-07T09:08:54;8.27;;;2.20;;
13611;SDS011;6877;51.436;6.774;2023-05-07T09:11:21;3.50;;;2.17;;
13611;SDS011;6877;51.436;6.774;2023-05-07T09:13:49;3.45;;;1.90;;
13611;SDS011;6877;51.436;6.774;2023-05-07T09:16:25;3.28;;;1.65;;
13611;SDS011;6877;51.436;6.774;2023-05-07T09:18:52;1.70;;;1.35;;
13611;SDS011;6877;51.436;6.774;2023-05-07T09:21:19;5.00;;;2.05;;
13611;SDS011;6877;51.436;6.774;2023-05-07T09:23:50;3.08;;;1.60;;
13611;SDS011;6877;51.436;6.774;2023-05-07T09:26:23;1.92;;;1.27;;
13611;SDS011;6877;51.436;6.774;2023-05-07T09:28:55;3.20;;;1.80;;
13611;SDS011;6877;51.436;6.774;2023-05-07T09:31:22;2.95;;;1.50;;
13611;SDS011;6877;51.436;6.774;2023-05-07T09:33:49;3.35;;;1.35;;
13611;SDS011;6877;51.436;6.774;2023-05-07T09:36:20;2.67;;;1.45;;
13611;SDS011;6877;51.436;6.774;2023-05-07T09:38:47;1.85;;;1.33;;
13611;SDS011;6877;51.436;6.774;2023-05-07T09:41:18;3.30;;;1.40;;
13611;SDS011;6877;51.436;6.774;2023-05-07T09:43:45;1.48;;;1.30;;
13611;SDS011;6877;51.436;6.774;2023-05-07T09:46:16;2.53;;;1.42;;
13611;SDS011;6877;51.436;6.774;2023-05-07T09:48:51;2.50;;;2.03;;
13611;SDS011;6877;51.436;6.774;2023-05-07T09:51:24;2.30;;;1.73;;
13611;SDS011;6877;51.436;6.774;2023-05-07T09:53:56;4.93;;;1.88;;
13611;SDS011;6877;51.436;6.774;2023-05-07T09:56:29;3.05;;;1.85;;
13611;SDS011;6877;51.436;6.774;2023-05-07T09:59:00;2.17;;;1.83;;
13611;SDS011;6877;51.436;6.774;2023-05-07T10:01:27;2.75;;;1.90;;
13611;SDS011;6877;51.436;6.774;2023-05-07T10:03:54;1.38;;;1.10;;
13611;SDS011;6877;51.436;6.774;2023-05-07T10:06:28;2.83;;;1.60;;
13611;SDS011;6877;51.436;6.774;2023-05-07T10:09:02;1.85;;;1.50;;
13611;SDS011;6877;51.436;6.774;2023-05-07T10:11:28;3.88;;;2.10;;
13611;SDS011;6877;51.436;6.774;2023-05-07T10:14:00;3.03;;;1.70;;
13611;SDS011;6877;51.436;6.774;2023-05-07T10:16:35;4.40;;;2.03;;
13611;SDS011;6877;51.436;6.774;2023-05-07T10:19:03;6.03;;;1.88;;
13611;SDS011;6877;51.436;6.774;2023-05-07T10:21:30;4.13;;;1.80;;
13611;SDS011;6877;51.436;6.774;2023-05-07T10:24:10;2.85;;;1.77;;
13611;SDS011;6877;51.436;6.774;2023-05-07T10:27:04;3.35;;;1.90;;
13611;SDS011;6877;51.436;6.774;2023-05-07T10:32:51;5.53;;;2.03;;
13611;SDS011;6877;51.436;6.774;2023-05-07T10:35:32;3.47;;;1.65;;
13611;SDS011;6877;51.436;6.774;2023-05-07T10:38:09;2.92;;;1.83;;
13611;SDS011;6877;51.436;6.774;2023-05-07T10:40:41;3.55;;;2.00;;
13611;SDS011;6877;51.436;6.774;2023-05-07T10:43:13;2.40;;;2.20;;
13611;SDS011;6877;51.436;6.774;2023-05-07T10:45:39;4.82;;;2.25;;
13611;SDS011;6877;51.436;6.774;2023-05-07T10:48:14;2.90;;;2.13;;
13611;SDS011;6877;51.436;6.774;2023-05-07T10:50:42;3.10;;;2.28;;
13611;SDS011;6877;51.436;6.774;2023-05-07T10:55:51;2.78;;;2.35;;
13611;SDS011;6877;51.436;6.774;2023-05-07T10:58:37;4.60;;;1.90;;
13611;SDS011;6877;51.436;6.774;2023-05-07T11:01:03;2.05;;;1.70;;
13611;SDS011;6877;51.436;6.774;2023-05-07T11:03:30;4.28;;;2.60;;
13611;SDS011;6877;51.436;6.774;2023-05-07T11:08:57;5.25;;;3.05;;
13611;SDS011;6877;51.436;6.774;2023-05-07T11:17:14;3.88;;;2.40;;
13611;SDS011;6877;51.436;6.774;2023-05-07T11:19:52;6.13;;;2.63;;
13611;SDS011;6877;51.436;6.774;2023-05-07T11:25:04;5.40;;;2.78;;
13611;SDS011;6877;51.436;6.774;2023-05-07T11:27:33;4.18;;;2.40;;
13611;SDS011;6877;51.436;6.774;2023-05-07T11:29:59;3.20;;;2.47;;
13611;SDS011;6877;51.436;6.774;2023-05-07T11:32:28;5.05;;;2.83;;
13611;SDS011;6877;51.436;6.774;2023-05-07T11:35:00;3.22;;;2.45;;
13611;SDS011;6877;51.436;6.774;2023-05-07T11:37:27;3.22;;;2.35;;
13611;SDS011;6877;51.436;6.774;2023-05-07T11:40:08;5.65;;;2.63;;
13611;SDS011;6877;51.436;6.774;2023-05-07T11:42:41;5.43;;;2.42;;
13611;SDS011;6877;51.436;6.774;2023-05-07T11:45:22;4.78;;;2.17;;
13611;SDS011;6877;51.436;6.774;2023-05-07T11:47:51;4.47;;;2.20;;
13611;SDS011;6877;51.436;6.774;2023-05-07T11:50:22;3.65;;;2.55;;
13611;SDS011;6877;51.436;6.774;2023-05-07T11:52:54;4.40;;;2.85;;
13611;SDS011;6877;51.436;6.774;2023-05-07T11:55:25;6.70;;;2.67;;
13611;SDS011;6877;51.436;6.774;2023-05-07T11:57:52;3.53;;;2.90;;
13611;SDS011;6877;51.436;6.774;2023-05-07T12:00:18;4.00;;;3.00;;
13611;SDS011;6877;51.436;6.774;2023-05-07T12:02:45;5.20;;;3.03;;
13611;SDS011;6877;51.436;6.774;2023-05-07T12:05:11;4.07;;;2.40;;
13611;SDS011;6877;51.436;6.774;2023-05-07T12:07:44;3.78;;;2.85;;
13611;SDS011;6877;51.436;6.774;2023-05-07T12:10:11;3.05;;;2.40;;
13611;SDS011;6877;51.436;6.774;2023-05-07T12:12:45;6.60;;;2.90;;
13611;SDS011;6877;51.436;6.774;2023-05-07T12:15:15;15.30;;;3.35;;
13611;SDS011;6877;51.436;6.774;2023-05-07T12:17:42;2.90;;;2.63;;
13611;SDS011;6877;51.436;6.774;2023-05-07T12:20:09;5.40;;;3.15;;
13611;SDS011;6877;51.436;6.774;2023-05-07T12:22:36;3.38;;;2.60;;
13611;SDS011;6877;51.436;6.774;2023-05-07T12:25:03;4.97;;;2.90;;
13611;SDS011;6877;51.436;6.774;2023-05-07T12:27:36;5.00;;;3.10;;
13611;SDS011;6877;51.436;6.774;2023-05-07T12:30:10;5.72;;;2.80;;
13611;SDS011;6877;51.436;6.774;2023-05-07T12:32:43;6.40;;;3.10;;
13611;SDS011;6877;51.436;6.774;2023-05-07T12:35:11;8.02;;;3.67;;
13611;SDS011;6877;51.436;6.774;2023-05-07T12:37:37;5.75;;;2.63;;
13611;SDS011;6877;51.436;6.774;2023-05-07T12:42:39;4.45;;;2.78;;
13611;SDS011;6877;51.436;6.774;2023-05-07T12:45:11;3.78;;;2.63;;
13611;SDS011;6877;51.436;6.774;2023-05-07T12:47:39;6.88;;;3.08;;
13611;SDS011;6877;51.436;6.774;2023-05-07T12:50:10;3.13;;;2.55;;
13611;SDS011;6877;51.436;6.774;2023-05-07T12:52:45;3.72;;;2.72;;
13611;SDS011;6877;51.436;6.774;2023-05-07T12:55:14;2.95;;;2.65;;
13611;SDS011;6877;51.436;6.774;2023-05-07T12:57:42;5.53;;;2.97;;
13611;SDS011;6877;51.436;6.774;2023-05-07T13:00:16;6.55;;;3.15;;
13611;SDS011;6877;51.436;6.774;2023-05-07T13:02:43;6.60;;;3.00;;
13611;SDS011;6877;51.436;6.774;2023-05-07T13:05:16;4.40;;;2.88;;
13611;SDS011;6877;51.436;6.774;2023-05-07T13:07:53;4.50;;;3.30;;
13611;SDS011;6877;51.436;6.774;2023-05-07T13:10:26;5.30;;;3.08;;
13611;SDS011;6877;51.436;6.774;2023-05-07T13:12:53;4.05;;;2.90;;
13611;SDS011;6877;51.436;6.774;2023-05-07T13:15:19;6.18;;;3.10;;
13611;SDS011;6877;51.436;6.774;2023-05-07T13:17:52;7.63;;;3.80;;
13611;SDS011;6877;51.436;6.774;2023-05-07T13:20:24;4.00;;;3.22;;
13611;SDS011;6877;51.436;6.774;2023-05-07T13:22:50;4.38;;;3.78;;
13611;SDS011;6877;51.436;6.774;2023-05-07T13:25:22;6.38;;;3.67;;
13611;SDS011;6877;51.436;6.774;2023-05-07T13:27:48;5.05;;;3.28;;
13611;SDS011;6877;51.436;6.774;2023-05-07T13:30:19;8.98;;;3.90;;
13611;SDS011;6877;51.436;6.774;2023-05-07T13:32:51;7.25;;;4.18;;
13611;SDS011;6877;51.436;6.774;2023-05-07T13:35:19;7.82;;;3.88;;
13611;SDS011;6877;51.436;6.774;2023-05-07T13:37:46;6.25;;;3.72;;
13611;SDS011;6877;51.436;6.774;2023-05-07T13:40:19;4.68;;;3.58;;
13611;SDS011;6877;51.436;6.774;2023-05-07T13:42:45;5.55;;;3.53;;
13611;SDS011;6877;51.436;6.774;2023-05-07T13:45:11;6.10;;;3.33;;
13611;SDS011;6877;51.436;6.774;2023-05-07T13:47:45;6.60;;;3.80;;
13611;SDS011;6877;51.436;6.774;2023-05-07T13:50:12;5.22;;;3.70;;
13611;SDS011;6877;51.436;6.774;2023-05-07T13:52:42;12.82;;;4.47;;
13611;SDS011;6877;51.436;6.774;2023-05-07T13:55:23;9.75;;;4.05;;
13611;SDS011;6877;51.436;6.774;2023-05-07T13:57:58;5.90;;;4.43;;
13611;SDS011;6877;51.436;6.774;2023-05-07T14:00:31;5.35;;;4.53;;
13611;SDS011;6877;51.436;6.774;2023-05-07T14:02:57;6.03;;;4.32;;
13611;SDS011;6877;51.436;6.774;2023-05-07T14:05:23;4.97;;;4.22;;
13611;SDS011;6877;51.436;6.774;2023-05-07T14:07:56;7.43;;;4.75;;
13611;SDS011;6877;51.436;6.774;2023-05-07T14:10:23;5.45;;;4.85;;
13611;SDS011;6877;51.436;6.774;2023-05-07T14:12:50;8.55;;;5.07;;
13611;SDS011;6877;51.436;6.774;2023-05-07T14:15:17;11.18;;;5.47;;
13611;SDS011;6877;51.436;6.774;2023-05-07T14:17:43;8.73;;;6.55;;
13611;SDS011;6877;51.436;6.774;2023-05-07T14:20:15;8.15;;;5.30;;
13611;SDS011;6877;51.436;6.774;2023-05-07T14:22:46;7.22;;;5.63;;
13611;SDS011;6877;51.436;6.774;2023-05-07T14:25:18;7.68;;;5.38;;
13611;SDS011;6877;51.436;6.774;2023-05-07T14:27:49;8.70;;;5.72;;
13611;SDS011;6877;51.436;6.774;2023-05-07T14:30:16;9.35;;;5.82;;
13611;SDS011;6877;51.436;6.774;2023-05-07T14:32:48;11.55;;;6.30;;
13611;SDS011;6877;51.436;6.774;2023-05-07T14:35:19;15.82;;;7.07;;
13611;SDS011;6877;51.436;6.774;2023-05-07T14:37:46;12.05;;;7.30;;
13611;SDS011;6877;51.436;6.774;2023-05-07T14:40:17;8.68;;;6.22;;
13611;SDS011;6877;51.436;6.774;2023-05-07T14:42:49;9.95;;;6.90;;
13611;SDS011;6877;51.436;6.774;2023-05-07T14:45:20;9.80;;;6.72;;
13611;SDS011;6877;51.436;6.774;2023-05-07T14:47:52;8.57;;;6.72;;
13611;SDS011;6877;51.436;6.774;2023-05-07T14:50:23;9.07;;;6.50;;
13611;SDS011;6877;51.436;6.774;2023-05-07T14:52:50;9.77;;;7.22;;
13611;SDS011;6877;51.436;6.774;2023-05-07T14:55:16;9.30;;;7.13;;
13611;SDS011;6877;51.436;6.774;2023-05-07T14:57:43;11.00;;;7.57;;
13611;SDS011;6877;51.436;6.774;2023-05-07T15:00:09;9.23;;;6.85;;
13611;SDS011;6877;51.436;6.774;2023-05-07T15:02:37;13.88;;;8.65;;
13611;SDS011;6877;51.436;6.774;2023-05-07T15:05:03;10.70;;;8.10;;
13611;SDS011;6877;51.436;6.774;2023-05-07T15:07:30;19.88;;;10.48;;
13611;SDS011;6877;51.436;6.774;2023-05-07T15:09:58;12.82;;;8.98;;
13611;SDS011;6877;51.436;6.774;2023-05-07T15:12:30;17.55;;;10.48;;
13611;SDS011;6877;51.436;6.774;2023-05-07T15:14:56;16.77;;;10.63;;
13611;SDS011;6877;51.436;6.774;2023-05-07T15:17:23;17.75;;;10.18;;
13611;SDS011;6877;51.436;6.774;2023-05-07T15:19:54;16.98;;;9.77;;
13611;SDS011;6877;51.436;6.774;2023-05-07T15:22:21;18.50;;;11.25;;
13611;SDS011;6877;51.436;6.774;2023-05-07T15:24:52;16.30;;;10.07;;